createdAt,value
2017-02-20T00:00:02.825Z,80.53
2017-02-20T00:00:30.960Z,80.53
2017-02-20T00:00:59.068Z,80.53
2017-02-20T00:01:27.003Z,80.53
2017-02-20T00:01:55.122Z,81.3
2017-02-20T00:02:23.232Z,81.3
2017-02-20T00:02:51.442Z,81.2
2017-02-20T00:03:19.675Z,81.2
2017-02-20T00:03:47.866Z,81.4
2017-02-20T00:04:16.088Z,81.4
2017-02-20T00:04:44.307Z,80.91
2017-02-20T00:05:12.289Z,81.11
2017-02-20T00:05:40.292Z,81.59
2017-02-20T00:06:08.604Z,80.62
2017-02-20T00:06:36.764Z,80.53
2017-02-20T00:07:04.740Z,80.82
2017-02-20T00:07:32.973Z,80.72
2017-02-20T00:08:01.128Z,80.62
2017-02-20T00:08:29.340Z,80.91
2017-02-20T00:08:57.397Z,80.82
2017-02-20T00:09:25.454Z,80.91
2017-02-20T00:09:53.465Z,80.72
2017-02-20T00:10:21.804Z,80.53
2017-02-20T00:10:49.934Z,81.2
2017-02-20T00:11:18.068Z,81.3
2017-02-20T00:11:46.404Z,80.43
2017-02-20T00:12:14.593Z,80.53
2017-02-20T00:12:42.720Z,81.2
2017-02-20T00:13:10.850Z,81.59
2017-02-20T00:13:38.950Z,81.2
2017-02-20T00:14:06.990Z,81.11
2017-02-20T00:14:35.359Z,81.3
2017-02-20T00:15:03.591Z,81.3
2017-02-20T00:15:31.716Z,81.3
2017-02-20T00:15:59.916Z,81.49
2017-02-20T00:16:28.121Z,81.2
2017-02-20T00:16:56.303Z,81.3
2017-02-20T00:17:24.505Z,81.01
2017-02-20T00:17:52.982Z,81.3
2017-02-20T00:18:21.136Z,81.3
2017-02-20T00:18:49.337Z,81.3
2017-02-20T00:19:17.654Z,81.49
2017-02-20T00:19:45.876Z,81.4
2017-02-20T00:20:14.403Z,80.62
2017-02-20T00:20:42.738Z,80.62
2017-02-20T00:21:10.815Z,80.43
2017-02-20T00:21:39.013Z,80.62
2017-02-20T00:22:07.198Z,81.4
2017-02-20T00:22:35.317Z,81.3
2017-02-20T00:23:03.430Z,81.4
2017-02-20T00:23:31.412Z,81.2
2017-02-20T00:23:59.533Z,81.11
2017-02-20T00:24:27.533Z,80.91
2017-02-20T00:24:55.699Z,81.4
2017-02-20T00:25:24.087Z,81.3
2017-02-20T00:25:52.277Z,81.4
2017-02-20T00:26:20.245Z,81.3
2017-02-20T00:26:48.393Z,81.2
2017-02-20T00:27:16.630Z,81.3
2017-02-20T00:27:44.744Z,81.3
2017-02-20T00:28:12.953Z,81.2
2017-02-20T00:28:41.197Z,81.2
2017-02-20T00:29:09.293Z,81.59
2017-02-20T00:29:37.427Z,81.78
2017-02-20T00:30:05.637Z,81.49
2017-02-20T00:30:33.980Z,82.56
2017-02-20T00:31:02.256Z,82.26
2017-02-20T00:31:30.347Z,82.17
2017-02-20T00:31:58.701Z,82.07
2017-02-20T00:32:26.827Z,83.23
2017-02-20T00:32:54.785Z,83.14
2017-02-20T00:33:23.065Z,82.75
2017-02-20T00:33:51.336Z,83.42
2017-02-20T00:34:19.531Z,83.42
2017-02-20T00:34:47.655Z,83.52
2017-02-20T00:35:16.092Z,83.33
2017-02-20T00:35:44.414Z,83.42
2017-02-20T00:36:12.585Z,83.52
2017-02-20T00:36:40.723Z,83.72
2017-02-20T00:37:08.919Z,83.91
2017-02-20T00:37:37.051Z,84.1
2017-02-20T00:38:05.297Z,84.1
2017-02-20T00:38:33.693Z,84.1
2017-02-20T00:39:01.825Z,84.39
2017-02-20T00:39:29.995Z,84.58
2017-02-20T00:39:58.201Z,84.88
2017-02-20T00:40:26.527Z,85.26
2017-02-20T00:40:54.755Z,85.16
2017-02-20T00:41:22.794Z,84.97
2017-02-20T00:41:50.993Z,85.64
2017-02-20T00:42:19.223Z,85.64
2017-02-20T00:42:47.284Z,85.31
2017-02-20T00:43:15.390Z,85.45
2017-02-20T00:43:43.528Z,86.03
2017-02-20T00:44:11.762Z,85.84
2017-02-20T00:44:39.933Z,86.13
2017-02-20T00:45:08.238Z,86.32
2017-02-20T00:45:36.396Z,86.8
2017-02-20T00:46:04.631Z,86.52
2017-02-20T00:46:32.731Z,86.52
2017-02-20T00:47:01.048Z,86.8
2017-02-20T00:47:29.267Z,86.13
2017-02-20T00:47:57.468Z,86.61
2017-02-20T00:48:25.582Z,86.71
2017-02-20T00:48:53.569Z,86.8
2017-02-20T00:49:21.823Z,86.71
2017-02-20T00:49:49.793Z,86.52
2017-02-20T00:50:18.005Z,86.42
2017-02-20T00:50:46.152Z,86.9
2017-02-20T00:51:14.124Z,86.96
2017-02-20T00:51:42.168Z,87.29
2017-02-20T00:52:10.357Z,87.19
2017-02-20T00:52:38.598Z,87.48
2017-02-20T00:53:06.839Z,87.19
2017-02-20T00:53:35.192Z,87.15
2017-02-20T00:54:03.246Z,87.48
2017-02-20T00:54:31.443Z,87.29
2017-02-20T00:54:59.538Z,87.44
2017-02-20T00:55:27.879Z,87.24
2017-02-20T00:55:55.917Z,87.82
2017-02-20T00:56:24.115Z,87.73
2017-02-20T00:56:52.210Z,87.73
2017-02-20T00:57:20.280Z,88.11
2017-02-20T00:57:48.581Z,88.31
2017-02-20T00:58:16.654Z,88.5
2017-02-20T00:58:44.785Z,88.4
2017-02-20T00:59:12.869Z,88.31
2017-02-20T00:59:40.806Z,88.31
2017-02-20T01:00:08.854Z,88.5
2017-02-20T01:00:37.014Z,88.5
2017-02-20T01:01:04.935Z,88.21
2017-02-20T01:01:33.149Z,88.4
2017-02-20T01:02:01.354Z,88.21
2017-02-20T01:02:29.297Z,88.89
2017-02-20T01:02:57.507Z,88.89
2017-02-20T01:03:25.757Z,88.89
2017-02-20T01:03:54.081Z,89.17
2017-02-20T01:04:22.135Z,89.17
2017-02-20T01:04:50.211Z,89.17
2017-02-20T01:05:18.351Z,89.37
2017-02-20T01:05:46.663Z,89.27
2017-02-20T01:06:14.729Z,89.37
2017-02-20T01:06:42.820Z,88.79
2017-02-20T01:07:11.068Z,89.37
2017-02-20T01:07:39.302Z,89.37
2017-02-20T01:08:07.551Z,89.17
2017-02-20T01:08:35.834Z,89.07
2017-02-20T01:09:04.006Z,89.17
2017-02-20T01:09:32.253Z,89.56
2017-02-20T01:10:00.512Z,89.27
2017-02-20T01:10:28.770Z,89.17
2017-02-20T01:10:56.899Z,89.85
2017-02-20T01:11:24.912Z,89.85
2017-02-20T01:11:53.425Z,89.85
2017-02-20T01:12:21.469Z,89.56
2017-02-20T01:12:49.732Z,89.47
2017-02-20T01:13:17.863Z,89.65
2017-02-20T01:13:46.070Z,89.56
2017-02-20T01:14:14.134Z,89.85
2017-02-20T01:14:42.378Z,89.37
2017-02-20T01:15:10.672Z,89.27
2017-02-20T01:15:38.915Z,89.75
2017-02-20T01:16:07.128Z,89.17
2017-02-20T01:16:35.440Z,89.17
2017-02-20T01:17:03.860Z,89.75
2017-02-20T01:17:32.029Z,89.95
2017-02-20T01:18:00.215Z,89.95
2017-02-20T01:18:28.579Z,89.75
2017-02-20T01:18:56.807Z,89.27
2017-02-20T01:19:24.927Z,89.75
2017-02-20T01:19:53.320Z,89.47
2017-02-20T01:20:21.402Z,90.05
2017-02-20T01:20:49.624Z,89.85
2017-02-20T01:21:17.759Z,89.47
2017-02-20T01:21:46.248Z,89.47
2017-02-20T01:22:14.386Z,89.65
2017-02-20T01:22:42.521Z,89.65
2017-02-20T01:23:10.813Z,89.85
2017-02-20T01:23:39.041Z,90.33
2017-02-20T01:24:07.023Z,89.85
2017-02-20T01:24:35.238Z,89.95
2017-02-20T01:25:03.407Z,89.95
2017-02-20T01:25:31.770Z,89.56
2017-02-20T01:25:59.902Z,89.85
2017-02-20T01:26:28.004Z,89.85
2017-02-20T01:26:56.078Z,89.65
2017-02-20T01:27:24.079Z,89.65
2017-02-20T01:27:52.210Z,89.95
2017-02-20T01:28:20.259Z,89.85
2017-02-20T01:28:48.377Z,89.65
2017-02-20T01:29:16.397Z,89.56
2017-02-20T01:29:44.521Z,89.75
2017-02-20T01:30:12.644Z,89.85
2017-02-20T01:30:40.830Z,89.95
2017-02-20T01:31:08.883Z,90.05
2017-02-20T01:31:37.215Z,90.43
2017-02-20T01:32:05.285Z,90.23
2017-02-20T01:32:33.513Z,90.33
2017-02-20T01:33:01.531Z,90.72
2017-02-20T01:33:29.772Z,90.43
2017-02-20T01:33:58.033Z,90.43
2017-02-20T01:34:26.178Z,90.33
2017-02-20T01:34:54.349Z,90.62
2017-02-20T01:35:22.513Z,90.53
2017-02-20T01:35:50.752Z,90.14
2017-02-20T01:36:18.906Z,89.95
2017-02-20T01:36:47.361Z,90.23
2017-02-20T01:37:15.477Z,90.33
2017-02-20T01:37:43.631Z,90.33
2017-02-20T01:38:12.040Z,90.81
2017-02-20T01:38:40.068Z,90.33
2017-02-20T01:39:08.316Z,90.43
2017-02-20T01:39:36.292Z,90.23
2017-02-20T01:40:04.502Z,89.95
2017-02-20T01:40:32.645Z,90.43
2017-02-20T01:41:00.904Z,90.05
2017-02-20T01:41:29.008Z,90.43
2017-02-20T01:41:57.130Z,90.43
2017-02-20T01:42:25.214Z,90.23
2017-02-20T01:42:53.494Z,90.05
2017-02-20T01:43:21.530Z,90.33
2017-02-20T01:43:49.641Z,90.23
2017-02-20T01:44:17.751Z,90.43
2017-02-20T01:44:46.064Z,90.43
2017-02-20T01:45:14.217Z,91.01
2017-02-20T01:45:42.285Z,90.53
2017-02-20T01:46:10.345Z,90.62
2017-02-20T01:46:38.591Z,90.62
2017-02-20T01:47:06.632Z,90.62
2017-02-20T01:47:34.796Z,90.91
2017-02-20T01:48:02.919Z,90.72
2017-02-20T01:48:31.292Z,90.81
2017-02-20T01:48:59.233Z,91.01
2017-02-20T01:49:27.468Z,90.81
2017-02-20T01:49:55.641Z,90.62
2017-02-20T01:50:23.742Z,91.49
2017-02-20T01:50:52.175Z,91.3
2017-02-20T01:51:20.401Z,91.3
2017-02-20T01:51:48.851Z,91.3
2017-02-20T01:52:16.985Z,91.11
2017-02-20T01:52:45.112Z,91.49
2017-02-20T01:53:13.213Z,91.59
2017-02-20T01:53:41.249Z,91.2
2017-02-20T01:54:09.347Z,91.2
2017-02-20T01:54:37.404Z,91.3
2017-02-20T01:55:05.930Z,91.3
2017-02-20T01:55:34.092Z,91.2
2017-02-20T01:56:02.319Z,91.11
2017-02-20T01:56:30.363Z,91.11
2017-02-20T01:56:58.409Z,90.91
2017-02-20T01:57:26.485Z,91.3
2017-02-20T01:57:54.733Z,91.11
2017-02-20T01:58:22.753Z,91.2
2017-02-20T01:58:50.832Z,91.2
2017-02-20T01:59:18.904Z,91.39
2017-02-20T01:59:46.919Z,91.49
2017-02-20T02:00:15.163Z,91.11
2017-02-20T02:00:43.345Z,91.3
2017-02-20T02:01:11.597Z,91.49
2017-02-20T02:01:39.711Z,91.64
2017-02-20T02:02:07.825Z,91.44
2017-02-20T02:02:36.048Z,91.25
2017-02-20T02:03:04.198Z,91.74
2017-02-20T02:03:32.332Z,91.44
2017-02-20T02:04:00.555Z,91.44
2017-02-20T02:04:28.622Z,91.35
2017-02-20T02:04:56.636Z,91.74
2017-02-20T02:05:24.637Z,92.02
2017-02-20T02:05:52.990Z,91.44
2017-02-20T02:06:21.184Z,92.02
2017-02-20T02:06:49.175Z,91.83
2017-02-20T02:07:17.393Z,91.54
2017-02-20T02:07:45.470Z,91.83
2017-02-20T02:08:13.620Z,91.83
2017-02-20T02:08:41.675Z,91.64
2017-02-20T02:09:09.782Z,91.64
2017-02-20T02:09:37.848Z,91.64
2017-02-20T02:10:06.120Z,91.83
2017-02-20T02:10:34.111Z,91.83
2017-02-20T02:11:02.365Z,92.41
2017-02-20T02:11:30.423Z,92.32
2017-02-20T02:11:58.463Z,92.6
2017-02-20T02:12:26.584Z,92.41
2017-02-20T02:12:54.810Z,92.5
2017-02-20T02:13:23.002Z,92.8
2017-02-20T02:13:51.046Z,92.12
2017-02-20T02:14:19.053Z,92.41
2017-02-20T02:14:47.267Z,92.41
2017-02-20T02:15:15.147Z,92.6
2017-02-20T02:15:43.188Z,93.28
2017-02-20T02:16:11.333Z,93.28
2017-02-20T02:16:39.263Z,94.24
2017-02-20T02:17:07.476Z,93.47
2017-02-20T02:17:35.476Z,92.89
2017-02-20T02:18:03.525Z,93.08
2017-02-20T02:18:31.727Z,93.08
2017-02-20T02:18:59.852Z,93.57
2017-02-20T02:19:27.891Z,93.95
2017-02-20T02:19:56.286Z,94.05
2017-02-20T02:20:24.505Z,93.57
2017-02-20T02:20:52.556Z,93.85
2017-02-20T02:21:20.836Z,94.38
2017-02-20T02:21:48.987Z,93.95
2017-02-20T02:22:17.099Z,94.15
2017-02-20T02:22:45.153Z,94.24
2017-02-20T02:23:13.340Z,94.24
2017-02-20T02:23:41.309Z,93.95
2017-02-20T02:24:09.554Z,93.76
2017-02-20T02:24:37.764Z,93.57
2017-02-20T02:25:05.757Z,93.76
2017-02-20T02:25:33.807Z,93.47
2017-02-20T02:26:02.005Z,93.85
2017-02-20T02:26:30.459Z,93.76
2017-02-20T02:26:58.575Z,93.85
2017-02-20T02:27:26.764Z,93.85
2017-02-20T02:27:54.763Z,93.85
2017-02-20T02:28:22.804Z,93.85
2017-02-20T02:28:51.051Z,93.76
2017-02-20T02:29:19.132Z,93.57
2017-02-20T02:29:47.376Z,93.66
2017-02-20T02:30:15.587Z,93.76
2017-02-20T02:30:43.658Z,93.95
2017-02-20T02:31:12.119Z,93.95
2017-02-20T02:31:40.208Z,93.95
2017-02-20T02:32:08.405Z,94.05
2017-02-20T02:32:36.588Z,93.76
2017-02-20T02:33:04.648Z,93.76
2017-02-20T02:33:32.689Z,93.85
2017-02-20T02:34:00.946Z,93.52
2017-02-20T02:34:29.091Z,94.05
2017-02-20T02:34:57.229Z,93.95
2017-02-20T02:35:25.279Z,93.95
2017-02-20T02:35:53.325Z,93.76
2017-02-20T02:36:21.586Z,93.76
2017-02-20T02:36:49.700Z,94.43
2017-02-20T02:37:17.894Z,94.1
2017-02-20T02:37:46.013Z,94.2
2017-02-20T02:38:14.038Z,94.2
2017-02-20T02:38:42.139Z,94.68
2017-02-20T02:39:10.295Z,95.74
2017-02-20T02:39:38.353Z,95.74
2017-02-20T02:40:06.364Z,96.12
2017-02-20T02:40:34.390Z,95.36
2017-02-20T02:41:02.601Z,95.54
2017-02-20T02:41:31.091Z,95.54
2017-02-20T02:41:59.180Z,95.84
2017-02-20T02:42:27.328Z,96.12
2017-02-20T02:42:55.532Z,95.93
2017-02-20T02:43:23.732Z,96.51
2017-02-20T02:43:51.915Z,96.99
2017-02-20T02:44:20.007Z,97.38
2017-02-20T02:44:48.144Z,98.15
2017-02-20T02:45:16.105Z,98.34
2017-02-20T02:45:44.069Z,97.96
2017-02-20T02:46:12.234Z,97.96
2017-02-20T02:46:40.510Z,98.54
2017-02-20T02:47:08.729Z,98.87
2017-02-20T02:47:36.806Z,98.68
2017-02-20T02:48:04.877Z,99.21
2017-02-20T02:48:32.971Z,98.63
2017-02-20T02:49:01.126Z,98.97
2017-02-20T02:49:29.086Z,99.26
2017-02-20T02:49:57.212Z,99.16
2017-02-20T02:50:25.298Z,99.07
2017-02-20T02:50:53.498Z,98.49
2017-02-20T02:51:21.674Z,99.21
2017-02-20T02:51:50.003Z,98.97
2017-02-20T02:52:18.029Z,99.11
2017-02-20T02:52:46.188Z,99.69
2017-02-20T02:53:14.314Z,99.69
2017-02-20T02:53:42.608Z,99.99
2017-02-20T02:54:11.140Z,99.98
2017-02-20T02:54:39.273Z,99.79
2017-02-20T02:55:07.303Z,99.99
2017-02-20T02:55:35.429Z,99.69
2017-02-20T02:56:03.633Z,99.69
2017-02-20T02:56:32.252Z,99.79
2017-02-20T02:57:00.321Z,99.79
2017-02-20T02:57:28.366Z,99.69
2017-02-20T02:57:56.480Z,99.6
2017-02-20T02:58:24.857Z,99.69
2017-02-20T02:58:52.910Z,99.99
2017-02-20T02:59:21.039Z,99.99
2017-02-20T02:59:49.784Z,99.99
2017-02-20T03:00:17.889Z,99.99
2017-02-20T03:00:45.907Z,99.99
2017-02-20T03:01:14.098Z,99.99
2017-02-20T03:01:42.109Z,99.99
2017-02-20T03:02:10.255Z,99.99
2017-02-20T03:02:38.598Z,99.99
2017-02-20T03:03:06.666Z,99.99
2017-02-20T03:03:34.923Z,99.99
2017-02-20T03:04:03.241Z,99.99
2017-02-20T03:04:31.386Z,99.99
2017-02-20T03:04:59.484Z,99.99
2017-02-20T03:05:27.372Z,99.99
2017-02-20T03:05:55.808Z,99.99
2017-02-20T03:06:23.916Z,99.99
2017-02-20T03:06:52.174Z,99.99
2017-02-20T03:07:20.570Z,99.99
2017-02-20T03:07:48.440Z,99.99
2017-02-20T03:08:16.598Z,99.99
2017-02-20T03:08:44.692Z,99.99
2017-02-20T03:09:12.990Z,99.99
2017-02-20T03:09:41.124Z,99.99
2017-02-20T03:10:09.254Z,99.99
2017-02-20T03:10:37.328Z,99.99
2017-02-20T03:11:05.810Z,99.99
2017-02-20T03:11:33.986Z,99.99
2017-02-20T03:12:02.293Z,99.99
2017-02-20T03:12:30.434Z,99.99
2017-02-20T03:12:59.076Z,99.99
2017-02-20T03:13:27.160Z,99.99
2017-02-20T03:13:55.355Z,99.99
2017-02-20T03:14:23.498Z,99.99
2017-02-20T03:14:51.753Z,99.99
2017-02-20T03:15:19.908Z,99.99
2017-02-20T03:15:48.011Z,99.99
2017-02-20T03:16:16.173Z,99.99
2017-02-20T03:16:44.309Z,99.99
2017-02-20T03:17:12.448Z,99.99
2017-02-20T03:17:40.683Z,99.99
2017-02-20T03:18:09.042Z,99.99
2017-02-20T03:18:37.251Z,99.99
2017-02-20T03:19:05.369Z,99.99
2017-02-20T03:19:33.853Z,99.99
2017-02-20T03:20:01.939Z,99.99
2017-02-20T03:20:30.024Z,99.99
2017-02-20T03:20:58.143Z,99.99
2017-02-20T03:21:26.402Z,99.99
2017-02-20T03:21:54.654Z,99.99
2017-02-20T03:22:22.990Z,99.99
2017-02-20T03:22:51.087Z,99.99
2017-02-20T03:23:19.478Z,99.99
2017-02-20T03:23:47.497Z,99.99
2017-02-20T03:24:15.695Z,99.99
2017-02-20T03:24:43.975Z,99.99
2017-02-20T03:25:12.113Z,99.99
2017-02-20T03:25:40.286Z,99.99
2017-02-20T03:26:08.345Z,99.99
2017-02-20T03:26:36.513Z,99.99
2017-02-20T03:27:05.032Z,99.99
2017-02-20T03:27:33.150Z,99.99
2017-02-20T03:28:01.692Z,99.99
2017-02-20T03:28:29.754Z,99.99
2017-02-20T03:28:57.849Z,99.99
2017-02-20T03:29:25.923Z,99.99
2017-02-20T03:29:54.438Z,99.99
2017-02-20T03:30:22.447Z,99.99
2017-02-20T03:30:50.635Z,99.99
2017-02-20T03:31:18.515Z,99.99
2017-02-20T03:31:47.020Z,99.99
2017-02-20T03:32:15.213Z,99.99
2017-02-20T03:32:43.432Z,99.99
2017-02-20T03:33:11.787Z,99.99
2017-02-20T03:33:39.995Z,99.99
2017-02-20T03:34:08.049Z,99.99
2017-02-20T03:34:36.404Z,99.99
2017-02-20T03:35:04.520Z,99.99
2017-02-20T03:35:32.665Z,99.99
2017-02-20T03:36:00.635Z,99.99
2017-02-20T03:36:28.511Z,99.99
2017-02-20T03:36:56.711Z,99.99
2017-02-20T03:37:24.937Z,99.99
2017-02-20T03:37:53.090Z,99.99
2017-02-20T03:38:21.150Z,99.99
2017-02-20T03:38:49.247Z,99.99
2017-02-20T03:39:17.320Z,99.99
2017-02-20T03:39:45.388Z,99.99
2017-02-20T03:40:13.701Z,99.99
2017-02-20T03:40:41.937Z,99.99
2017-02-20T03:41:10.020Z,99.99
2017-02-20T03:41:38.333Z,99.99
2017-02-20T03:42:06.562Z,99.99
2017-02-20T03:42:34.778Z,99.99
2017-02-20T03:43:03.043Z,99.99
2017-02-20T03:43:31.236Z,99.99
2017-02-20T03:43:59.442Z,99.99
2017-02-20T03:44:27.458Z,99.99
2017-02-20T03:44:55.886Z,99.99
2017-02-20T03:45:23.940Z,99.99
2017-02-20T03:45:51.971Z,99.99
2017-02-20T03:46:20.015Z,99.99
2017-02-20T03:46:48.606Z,99.99
2017-02-20T03:47:16.801Z,99.99
2017-02-20T03:47:44.821Z,99.99
2017-02-20T03:48:13.003Z,99.99
2017-02-20T03:48:41.143Z,99.99
2017-02-20T03:49:09.351Z,99.99
2017-02-20T03:49:37.454Z,99.99
2017-02-20T03:50:05.720Z,99.99
2017-02-20T03:50:33.919Z,99.99
2017-02-20T03:51:02.011Z,99.99
2017-02-20T03:51:30.343Z,99.99
2017-02-20T03:51:58.683Z,99.99
2017-02-20T03:52:26.887Z,99.99
2017-02-20T03:52:55.030Z,99.99
2017-02-20T03:53:23.402Z,99.99
2017-02-20T03:53:51.309Z,99.99
2017-02-20T03:54:19.246Z,99.99
2017-02-20T03:54:47.268Z,99.99
2017-02-20T03:55:15.448Z,99.99
2017-02-20T03:55:43.575Z,99.99
2017-02-20T03:56:11.635Z,99.99
2017-02-20T03:56:39.999Z,99.99
2017-02-20T03:57:08.187Z,99.99
2017-02-20T03:57:36.183Z,99.99
2017-02-20T03:58:04.271Z,99.99
2017-02-20T03:58:32.492Z,99.99
2017-02-20T03:59:00.710Z,99.99
2017-02-20T03:59:28.644Z,99.99
2017-02-20T03:59:56.685Z,99.99
2017-02-20T04:00:24.750Z,99.99
2017-02-20T04:00:52.799Z,99.99
2017-02-20T04:01:20.993Z,99.99
2017-02-20T04:01:49.258Z,99.99
2017-02-20T04:02:17.801Z,99.99
2017-02-20T04:02:46.056Z,99.99
2017-02-20T04:03:14.211Z,99.99
2017-02-20T04:03:42.633Z,99.99
2017-02-20T04:04:10.752Z,99.99
2017-02-20T04:04:38.787Z,99.99
2017-02-20T04:05:07.065Z,99.99
2017-02-20T04:05:35.316Z,99.99
2017-02-20T04:06:03.362Z,99.99
2017-02-20T04:06:31.515Z,99.99
2017-02-20T04:06:59.761Z,99.99
2017-02-20T04:07:27.770Z,99.99
2017-02-20T04:07:55.802Z,99.99
2017-02-20T04:08:24.034Z,99.99
2017-02-20T04:08:52.351Z,99.99
2017-02-20T04:09:20.490Z,99.99
2017-02-20T04:09:48.594Z,99.99
2017-02-20T04:10:16.762Z,99.99
2017-02-20T04:10:44.935Z,99.99
2017-02-20T04:11:13.142Z,99.99
2017-02-20T04:11:41.472Z,99.99
2017-02-20T04:12:09.766Z,99.99
2017-02-20T04:12:38.065Z,99.99
2017-02-20T04:13:06.562Z,99.99
2017-02-20T04:13:34.661Z,99.99
2017-02-20T04:14:02.905Z,99.99
2017-02-20T04:14:31.119Z,99.99
2017-02-20T04:14:59.145Z,99.99
2017-02-20T04:15:26.942Z,99.99
2017-02-20T04:15:54.959Z,99.99
2017-02-20T04:16:23.168Z,99.99
2017-02-20T04:16:51.337Z,99.99
2017-02-20T04:17:19.768Z,99.99
2017-02-20T04:17:47.852Z,99.99
2017-02-20T04:18:15.945Z,99.99
2017-02-20T04:18:43.997Z,99.99
2017-02-20T04:19:12.190Z,99.99
2017-02-20T04:19:40.625Z,99.99
2017-02-20T04:20:08.591Z,99.99
2017-02-20T04:20:36.795Z,99.99
2017-02-20T04:21:05.045Z,99.99
2017-02-20T04:21:33.162Z,99.99
2017-02-20T04:22:01.255Z,99.99
2017-02-20T04:22:29.702Z,99.99
2017-02-20T04:22:57.708Z,99.99
2017-02-20T04:23:25.686Z,99.99
2017-02-20T04:23:53.797Z,99.99
2017-02-20T04:24:21.818Z,99.99
2017-02-20T04:24:49.988Z,99.99
2017-02-20T04:25:18.026Z,99.99
2017-02-20T04:25:46.184Z,99.99
2017-02-20T04:26:14.330Z,99.99
2017-02-20T04:26:42.463Z,99.99
2017-02-20T04:27:10.640Z,99.99
2017-02-20T04:27:38.874Z,99.99
2017-02-20T04:28:06.989Z,99.99
2017-02-20T04:28:35.148Z,99.99
2017-02-20T04:29:03.289Z,99.99
2017-02-20T04:29:31.270Z,99.99
2017-02-20T04:29:59.263Z,99.99
2017-02-20T04:30:27.456Z,99.99
2017-02-20T04:30:55.629Z,99.99
2017-02-20T04:31:23.742Z,99.99
2017-02-20T04:31:51.647Z,99.99
2017-02-20T04:32:19.923Z,99.99
2017-02-20T04:32:48.109Z,99.99
2017-02-20T04:33:16.274Z,99.99
2017-02-20T04:33:44.409Z,99.99
2017-02-20T04:34:12.666Z,99.99
2017-02-20T04:34:40.622Z,99.99
2017-02-20T04:35:08.720Z,99.99
2017-02-20T04:35:36.851Z,99.99
2017-02-20T04:36:04.895Z,99.99
2017-02-20T04:36:33.128Z,99.99
2017-02-20T04:37:01.160Z,99.99
2017-02-20T04:37:29.290Z,99.99
2017-02-20T04:37:57.426Z,99.99
2017-02-20T04:38:25.536Z,99.99
2017-02-20T04:38:53.485Z,99.99
2017-02-20T04:39:21.594Z,99.99
2017-02-20T04:39:49.626Z,99.99
2017-02-20T04:40:17.770Z,99.99
2017-02-20T04:40:46.002Z,99.99
2017-02-20T04:41:14.196Z,99.99
2017-02-20T04:41:42.472Z,99.99
2017-02-20T04:42:10.501Z,99.99
2017-02-20T04:42:38.888Z,99.99
2017-02-20T04:43:07.134Z,99.99
2017-02-20T04:43:35.282Z,99.99
2017-02-20T04:44:03.460Z,99.99
2017-02-20T04:44:31.494Z,99.99
2017-02-20T04:44:59.714Z,99.99
2017-02-20T04:45:27.917Z,99.99
2017-02-20T04:45:56.099Z,99.99
2017-02-20T04:46:24.132Z,99.99
2017-02-20T04:46:52.237Z,99.99
2017-02-20T04:47:20.318Z,99.99
2017-02-20T04:47:48.570Z,99.99
2017-02-20T04:48:16.493Z,99.99
2017-02-20T04:48:44.695Z,99.99
2017-02-20T04:49:12.810Z,99.99
2017-02-20T04:49:40.902Z,99.99
2017-02-20T04:50:08.849Z,99.99
2017-02-20T04:50:37.011Z,99.99
2017-02-20T04:51:05.121Z,99.99
2017-02-20T04:51:33.245Z,99.99
2017-02-20T04:52:01.373Z,99.99
2017-02-20T04:52:29.634Z,99.99
2017-02-20T04:52:57.849Z,99.99
2017-02-20T04:53:26.088Z,99.99
2017-02-20T04:53:54.181Z,99.99
2017-02-20T04:54:22.377Z,99.99
2017-02-20T04:54:50.626Z,99.99
2017-02-20T04:55:18.848Z,99.99
2017-02-20T04:55:47.059Z,99.99
2017-02-20T04:56:15.024Z,99.99
2017-02-20T04:56:43.251Z,99.99
2017-02-20T04:57:11.325Z,99.99
2017-02-20T04:57:39.592Z,99.99
2017-02-20T04:58:07.666Z,99.99
2017-02-20T04:58:35.843Z,99.99
2017-02-20T04:59:03.850Z,99.99
2017-02-20T04:59:31.991Z,99.99
2017-02-20T05:00:00.139Z,99.99
2017-02-20T05:00:28.329Z,99.99
2017-02-20T05:00:56.463Z,99.99
2017-02-20T05:01:24.419Z,99.99
2017-02-20T05:01:52.566Z,99.99
2017-02-20T05:02:20.749Z,99.99
2017-02-20T05:02:48.940Z,99.99
2017-02-20T05:03:16.911Z,99.99
2017-02-20T05:03:45.036Z,99.99
2017-02-20T05:04:13.271Z,99.99
2017-02-20T05:04:41.451Z,99.99
2017-02-20T05:05:09.352Z,99.99
2017-02-20T05:05:37.518Z,99.99
2017-02-20T05:06:05.620Z,99.99
2017-02-20T05:06:33.676Z,99.99
2017-02-20T05:07:01.734Z,99.99
2017-02-20T05:07:29.804Z,99.99
2017-02-20T05:07:58.037Z,99.99
2017-02-20T05:08:26.219Z,99.99
2017-02-20T05:08:54.422Z,99.99
2017-02-20T05:09:22.669Z,99.99
2017-02-20T05:09:50.789Z,99.99
2017-02-20T05:10:18.824Z,99.99
2017-02-20T05:10:46.886Z,99.99
2017-02-20T05:11:14.835Z,99.99
2017-02-20T05:11:42.938Z,99.99
2017-02-20T05:12:11.061Z,99.99
2017-02-20T05:12:39.223Z,99.99
2017-02-20T05:13:07.499Z,99.99
2017-02-20T05:13:35.612Z,99.99
2017-02-20T05:14:03.727Z,99.99
2017-02-20T05:14:31.928Z,99.99
2017-02-20T05:14:59.861Z,99.99
2017-02-20T05:15:27.919Z,99.99
2017-02-20T05:15:55.993Z,99.99
2017-02-20T05:16:24.057Z,99.99
2017-02-20T05:16:52.354Z,99.99
2017-02-20T05:17:20.468Z,99.99
2017-02-20T05:17:48.909Z,99.99
2017-02-20T05:18:16.949Z,99.99
2017-02-20T05:18:45.190Z,99.99
2017-02-20T05:19:13.329Z,99.99
2017-02-20T05:19:41.457Z,99.99
2017-02-20T05:20:09.626Z,99.99
2017-02-20T05:20:37.645Z,99.99
2017-02-20T05:21:05.726Z,99.99
2017-02-20T05:21:33.838Z,99.99
2017-02-20T05:22:01.967Z,99.99
2017-02-20T05:22:29.999Z,99.99
2017-02-20T05:22:57.941Z,99.99
2017-02-20T05:23:25.978Z,99.99
2017-02-20T05:23:54.008Z,99.99
2017-02-20T05:24:22.119Z,99.99
2017-02-20T05:24:50.340Z,99.99
2017-02-20T05:25:18.551Z,99.99
2017-02-20T05:25:46.635Z,99.99
2017-02-20T05:26:14.861Z,99.99
2017-02-20T05:26:42.826Z,99.99
2017-02-20T05:27:11.028Z,99.99
2017-02-20T05:27:39.022Z,99.99
2017-02-20T05:28:07.351Z,99.99
2017-02-20T05:28:35.374Z,99.99
2017-02-20T05:29:03.504Z,99.99
2017-02-20T05:29:31.533Z,99.99
2017-02-20T05:29:59.666Z,99.99
2017-02-20T05:30:27.834Z,99.99
2017-02-20T05:30:55.903Z,99.99
2017-02-20T05:31:23.958Z,99.99
2017-02-20T05:31:52.110Z,99.99
2017-02-20T05:32:20.219Z,99.99
2017-02-20T05:32:48.332Z,99.99
2017-02-20T05:33:16.543Z,99.99
2017-02-20T05:33:44.579Z,99.99
2017-02-20T05:34:12.684Z,99.99
2017-02-20T05:34:40.790Z,99.99
2017-02-20T05:35:08.899Z,99.99
2017-02-20T05:35:37.041Z,99.99
2017-02-20T05:36:05.232Z,99.99
2017-02-20T05:36:33.477Z,99.99
2017-02-20T05:37:01.432Z,99.99
2017-02-20T05:37:29.667Z,99.99
2017-02-20T05:37:57.891Z,99.99
2017-02-20T05:38:26.001Z,99.99
2017-02-20T05:38:54.116Z,99.99
2017-02-20T05:39:22.313Z,99.99
2017-02-20T05:39:50.424Z,99.99
2017-02-20T05:40:18.598Z,99.99
2017-02-20T05:40:46.729Z,99.99
2017-02-20T05:41:14.814Z,99.99
2017-02-20T05:41:42.775Z,99.99
2017-02-20T05:42:10.898Z,99.99
2017-02-20T05:42:38.908Z,99.99
2017-02-20T05:43:07.127Z,99.99
2017-02-20T05:43:35.220Z,99.99
2017-02-20T05:44:03.376Z,99.99
2017-02-20T05:44:31.584Z,99.99
2017-02-20T05:44:59.765Z,99.99
2017-02-20T05:45:27.773Z,99.99
2017-02-20T05:45:55.999Z,99.99
2017-02-20T05:46:24.137Z,99.99
2017-02-20T05:46:52.394Z,99.99
2017-02-20T05:47:20.477Z,99.99
2017-02-20T05:47:48.631Z,99.99
2017-02-20T05:48:16.641Z,99.99
2017-02-20T05:48:44.779Z,99.99
2017-02-20T05:49:12.856Z,99.99
2017-02-20T05:49:40.936Z,99.99
2017-02-20T05:50:09.052Z,99.99
2017-02-20T05:50:37.164Z,99.99
2017-02-20T05:51:05.260Z,99.99
2017-02-20T05:51:33.468Z,99.99
2017-02-20T05:52:01.710Z,99.99
2017-02-20T05:52:29.783Z,99.99
2017-02-20T05:52:57.861Z,99.99
2017-02-20T05:53:26.008Z,99.99
2017-02-20T05:53:54.185Z,99.99
2017-02-20T05:54:22.408Z,99.99
2017-02-20T05:54:50.625Z,99.99
2017-02-20T05:55:18.577Z,99.99
2017-02-20T05:55:46.667Z,99.99
2017-02-20T05:56:14.677Z,99.99
2017-02-20T05:56:42.718Z,99.99
2017-02-20T05:57:10.834Z,99.99
2017-02-20T05:57:38.925Z,99.99
2017-02-20T05:58:07.027Z,99.99
2017-02-20T05:58:35.282Z,99.99
2017-02-20T05:59:03.366Z,99.99
2017-02-20T05:59:31.593Z,99.99
2017-02-20T05:59:59.770Z,99.99
2017-02-20T06:00:27.861Z,99.99
2017-02-20T06:00:56.021Z,99.99
2017-02-20T06:01:24.195Z,99.99
2017-02-20T06:01:52.316Z,99.99
2017-02-20T06:02:20.284Z,99.99
2017-02-20T06:02:48.517Z,99.99
2017-02-20T06:03:16.805Z,99.99